Etretat — FIDP — position and weather

sailwx.info

Track history (hours):
 
Tides and Currents Weather Stations Pressure Air Temp Water Temp Dewpoint Dewpoint Depression Visibility Wind Speed Wind Dir Waves Ship Positions

Etretat

Last reported at 2015-Jul-07 04:34 UTC. Time now 2015-Jul-07 04:38 UTC.
Position N 49°41' W 000°09'.

Length 187 m; draft 6 m.

Type: Ship. MMSI: 228022900.

Date/timePositionNaut miles runAvg speedWind from/ knotsBaromVisibWave heightAir tempDewpointWater temp
2015-Jul-07 04:34N 49°41' W 000°09'1514.5
2015-Jul-07 03:33N 49°54' W 000°19'2914.3
2015-Jul-07 01:33N 50°21' W 000°36'1111.0
2015-Jul-07 00:33N 50°30' W 000°45'1111.3
2015-Jul-06 23:33N 50°39' W 000°55'1110.9
2015-Jul-06 22:33N 50°48' W 001°07'1 1.2
2015-Jul-06 21:33N 50°49' W 001°06'0 0.0
2015-Jul-06 20:33N 50°49' W 001°06'0 0.0
2015-Jul-06 19:33N 50°49' W 001°06'0 0.0
2015-Jul-06 18:33N 50°49' W 001°06'0 0.0
2015-Jul-06 17:33N 50°49' W 001°06'0 0.0
2015-Jul-06 16:33N 50°49' W 001°06'0 0.0
2015-Jul-06 15:33N 50°49' W 001°06'0 0.0
2015-Jul-06 14:33N 50°49' W 001°06'4 4.3
2015-Jul-06 13:33N 50°44' W 001°05'1716.9
2015-Jul-06 12:33N 50°31' W 001°21'2621.8
2015-Jul-06 11:20N 50°12' W 001°50'1822.8
2015-Jul-06 10:31N 50°00' W 002°12'6319.4
2015-Jul-06 07:15N 49°24' W 003°33'1619.3
2015-Jul-06 06:26N 49°14' W 003°51'1718.9
2015-Jul-06 05:33N 49°02' W 004°08'1918.7
2015-Jul-06 04:31N 48°48' W 004°30'1919.1
2015-Jul-06 03:31N 48°35' W 004°50'1818.7
2015-Jul-06 02:34N 48°21' W 005°07'2420.9
2015-Jul-06 01:24N 47°57' W 005°09'2422.0
2015-Jul-06 00:20N 47°33' W 005°02'1822.4
2015-Jul-05 23:33N 47°16' W 004°57'2322.5
2015-Jul-05 22:31N 46°54' W 004°49'5122.5
2015-Jul-05 20:14N 46°04' W 004°31'26 1.3
2015-Jul-05 00:23N 46°30' W 004°24'4222.1
2015-Jul-04 22:29N 47°11' W 004°33'4621.9
2015-Jul-04 20:22N 47°57' W 004°43'12517.8
2015-Jul-04 13:22N 49°47' W 003°13'4621.3
2015-Jul-04 11:13N 50°10' W 002°12'1319.3
2015-Jul-04 10:33N 50°16' W 001°54'1918.7
2015-Jul-04 09:33N 50°26' W 001°29'1818.3
2015-Jul-04 08:33N 50°35' W 001°05'1312.7
2015-Jul-04 07:33N 50°48' W 001°07'1 0.9
2015-Jul-04 06:33N 50°49' W 001°06'0 0.0
2015-Jul-04 05:33N 50°49' W 001°06'0 0.0
2015-Jul-04 04:33N 50°49' W 001°06'8 8.2
2015-Jul-04 03:33N 50°42' W 000°58'1515.4
2015-Jul-04 02:33N 50°28' W 000°47'1614.8
2015-Jul-04 01:28N 50°15' W 000°34'2110.1
2015-Jul-03 23:22N 49°56' W 000°18'8 9.7
2015-Jul-03 22:33N 49°49' W 000°13'10 9.9
2015-Jul-03 21:34N 49°40' W 000°06'1110.8
2015-Jul-03 20:33N 49°30' E 000°01'4 3.8
2015-Jul-03 19:34N 49°29' E 000°07'0 0.0
2015-Jul-03 18:33N 49°29' E 000°07'0 0.0
2015-Jul-03 17:34N 49°29' E 000°07'0 0.0
2015-Jul-03 16:34N 49°29' E 000°07'0 0.0
2015-Jul-03 15:34N 49°29' E 000°07'0 0.0
2015-Jul-03 14:34N 49°29' E 000°07'10 9.5
2015-Jul-03 13:33N 49°36' W 000°03'2019.7
2015-Jul-03 12:33N 49°53' W 000°19'2419.8
2015-Jul-03 11:21N 50°15' W 000°35'1919.8
2015-Jul-03 10:23N 50°32' W 000°49'1518.9
2015-Jul-03 09:33N 50°44' W 001°04'5 4.9
2015-Jul-03 08:33N 50°49' W 001°06'0 0.0
2015-Jul-03 07:33N 50°49' W 001°06'0 0.0
2015-Jul-03 06:33N 50°49' W 001°06'0 0.0
2015-Jul-03 05:33N 50°49' W 001°06'7 6.8
2015-Jul-03 04:33N 50°43' W 000°60'1515.1
2015-Jul-03 03:32N 50°30' W 000°47'1612.1
2015-Jul-03 02:12N 50°15' W 000°36'810.7
2015-Jul-03 01:30N 50°09' W 000°30'1010.4
2015-Jul-03 00:33N 50°00' W 000°23'1010.1
2015-Jul-02 23:33N 49°52' W 000°15'10 9.8
2015-Jul-02 22:33N 49°43' W 000°09'10 9.8
2015-Jul-02 21:33N 49°34' W 000°01'7 7.2
2015-Jul-02 20:34N 49°29' E 000°07'0 0.0
2015-Jul-02 19:33N 49°29' E 000°07'0 0.0
2015-Jul-02 18:33N 49°29' E 000°07'0 0.0
2015-Jul-02 17:33N 49°29' E 000°07'0 0.0
2015-Jul-02 16:33N 49°29' E 000°07'0 0.0
2015-Jul-02 15:33N 49°29' E 000°07'0 0.0
2015-Jul-02 14:33N 49°29' E 000°07'0 0.0
2015-Jul-02 13:33N 49°29' E 000°07'0 0.0
2015-Jul-02 12:33N 49°29' E 000°07'0 0.0
2015-Jul-02 11:33N 49°29' E 000°07'0 0.0
2015-Jul-02 10:33N 49°29' E 000°07'0 0.0
2015-Jul-02 09:34N 49°29' E 000°07'0 0.0
2015-Jul-02 08:33N 49°29' E 000°07'0 0.0
2015-Jul-02 07:34N 49°29' E 000°07'4 4.2
2015-Jul-02 06:33N 49°31' E 000°01'1515.4
2015-Jul-02 05:33N 49°44' W 000°12'1616.0
2015-Jul-02 04:33N 49°58' W 000°22'3716.0
2015-Jul-02 02:14N 50°31' W 000°49'1115.9
2015-Jul-02 01:33N 50°41' W 000°57'10 9.5
2015-Jul-02 00:33N 50°49' W 001°06'0 0.0
2015-Jul-01 23:33N 50°49' W 001°06'0 0.0
2015-Jul-01 22:33N 50°49' W 001°06'0 0.0
2015-Jul-01 21:33N 50°49' W 001°06'1 0.9
2015-Jul-01 20:33N 50°48' W 001°07'1717.1
2015-Jul-01 19:33N 50°34' W 000°51'4520.7
2015-Jul-01 17:23N 49°55' W 000°17'1720.9
2015-Jul-01 16:34N 49°39' W 000°06'1313.0
2015-Jul-01 15:33N 49°29' E 000°07'0 0.0
2015-Jul-01 14:33N 49°29' E 000°07'0 0.0
2015-Jul-01 13:33N 49°29' E 000°07'0 0.0
2015-Jul-01 12:34N 49°29' E 000°07'0 0.0
2015-Jul-01 11:33N 49°29' E 000°07'0 0.0
2015-Jul-01 10:34N 49°29' E 000°07'0 0.0
2015-Jul-01 09:33N 49°29' E 000°07'0 0.0
2015-Jul-01 08:33N 49°29' E 000°07'0 0.2
2015-Jul-01 07:33N 49°29' E 000°06'1111.4
2015-Jul-01 06:34N 49°38' W 000°05'1615.7
2015-Jul-01 05:34N 49°52' W 000°16'3416.3
2015-Jul-01 03:29N 50°22' W 000°41'1516.1
2015-Jul-01 02:34N 50°35' W 000°52'1414.1
2015-Jul-01 01:34N 50°46' W 001°05'3 2.6
2015-Jul-01 00:33N 50°49' W 001°06'0 0.0
2015-Jun-30 23:33N 50°49' W 001°06'0 0.0
2015-Jun-30 22:33N 50°49' W 001°06'0 0.0
2015-Jun-30 21:33N 50°49' W 001°06'4 4.2
2015-Jun-30 20:33N 50°44' W 001°05'2020.4
2015-Jun-30 19:33N 50°27' W 000°48'2020.4
2015-Jun-30 18:33N 50°10' W 000°30'2121.0
2015-Jun-30 17:34N 49°52' W 000°14'2121.3
2015-Jun-30 16:33N 49°32' W 000°01'6 5.8
2015-Jun-30 15:33N 49°29' E 000°07'0 0.0
2015-Jun-30 14:33N 49°29' E 000°07'0 0.0
2015-Jun-30 13:34N 49°29' E 000°07'0 0.0
2015-Jun-30 12:34N 49°29' E 000°07'0 0.0
2015-Jun-30 11:34N 49°29' E 000°07'0 0.0
2015-Jun-30 10:34N 49°29' E 000°07'0 0.0
2015-Jun-30 09:34N 49°29' E 000°07'0 0.0
2015-Jun-30 08:33N 49°29' E 000°07'0 0.0
2015-Jun-30 07:34N 49°29' E 000°07'0 0.0
2015-Jun-30 06:34N 49°29' E 000°07'1 1.1
2015-Jun-30 05:33N 49°29' E 000°05'1211.8
2015-Jun-30 04:34N 49°38' W 000°07'1414.0
2015-Jun-30 03:33N 49°51' W 000°16'1414.1
2015-Jun-30 02:33N 50°03' W 000°27'1413.5
2015-Jun-30 01:34N 50°15' W 000°37'1313.4
2015-Jun-30 00:34N 50°27' W 000°46'1413.7
2015-Jun-29 23:33N 50°39' W 000°57'1111.4
2015-Jun-29 22:34N 50°49' W 001°06'0 0.1
2015-Jun-29 21:34N 50°49' W 001°06'0 0.0
2015-Jun-29 20:34N 50°49' W 001°06'0 0.0
2015-Jun-29 19:34N 50°49' W 001°06'0 0.0
2015-Jun-29 18:34N 50°49' W 001°06'0 0.0
2015-Jun-29 17:34N 50°49' W 001°06'0 0.0
2015-Jun-29 16:34N 50°49' W 001°06'0 0.0
2015-Jun-29 15:34N 50°49' W 001°06'0 0.0
2015-Jun-29 14:34N 50°49' W 001°06'2 2.2
2015-Jun-29 13:33N 50°46' W 001°06'1212.1
2015-Jun-29 12:33N 50°34' W 001°08'1816.6
2015-Jun-29 11:28N 50°23' W 001°30'1516.3
2015-Jun-29 10:33N 50°15' W 001°50'1717.1
2015-Jun-29 09:33N 50°03' W 002°09'2219.3
2015-Jun-29 08:26N 49°52' W 002°38'1820.7
2015-Jun-29 07:32N 49°43' W 003°02'2120.8
2015-Jun-29 06:31N 49°28' W 003°26'2020.7
2015-Jun-29 05:33N 49°14' W 003°48'2120.9
2015-Jun-29 04:33N 48°59' W 004°11'2121.0
2015-Jun-29 03:33N 48°46' W 004°34'2120.9
2015-Jun-29 02:33N 48°30' W 004°56'1818.1
2015-Jun-29 01:33N 48°14' W 005°09'2322.8
2015-Jun-29 00:34N 47°52' W 005°05'2322.6
2015-Jun-28 23:32N 47°29' W 004°57'2222.7
2015-Jun-28 22:33N 47°07' W 004°50'2322.6
2015-Jun-28 21:33N 46°45' W 004°44'2322.5
2015-Jun-28 20:31N 46°22' W 004°37'2122.2
2015-Jun-28 19:33N 46°01' W 004°31'2322.3
2015-Jun-28 18:33N 45°39' W 004°24'2322.4
2015-Jun-28 17:30N 45°17' W 004°17'1 0.1
2015-Jun-28 03:34N 45°18' W 004°16'2822.2
2015-Jun-28 02:18N 45°45' W 004°25'1722.1
2015-Jun-28 01:32N 46°01' W 004°31'2121.9
2015-Jun-28 00:33N 46°22' W 004°38'2222.2
2015-Jun-27 23:33N 46°44' W 004°45'2222.3
2015-Jun-27 22:33N 47°05' W 004°53'2322.0
2015-Jun-27 21:30N 47°28' W 004°60'2121.9
2015-Jun-27 20:33N 47°49' W 005°04'2121.3
2015-Jun-27 19:33N 48°10' W 005°10'1918.9
2015-Jun-27 18:33N 48°27' W 005°00'2620.3
2015-Jun-27 17:18N 48°47' W 004°35'8220.1
2015-Jun-27 13:14N 49°48' W 003°11'1718.9
2015-Jun-27 12:21N 49°58' W 002°51'2019.5
2015-Jun-27 11:18N 50°06' W 002°22'1620.0
2015-Jun-27 10:29N 50°15' W 002°01'1920.1
2015-Jun-27 09:33N 50°25' W 001°36'2020.3
2015-Jun-27 08:33N 50°35' W 001°08'1413.8
2015-Jun-27 07:33N 50°49' W 001°06'0 0.1
2015-Jun-27 06:33N 50°49' W 001°06'0 0.0
2015-Jun-27 05:33N 50°49' W 001°06'  
Track history (hours):
 
Tides and Currents Weather Stations Pressure Air Temp Water Temp Dewpoint Dewpoint Depression Visibility Wind Speed Wind Dir Waves Ship Positions

Etretat

Last reported at 2015-Jul-07 04:34 UTC. Time now 2015-Jul-07 04:38 UTC.
Position N 49°41' W 000°09'.

Length 187 m; draft 6 m.

Type: Ship. MMSI: 228022900.

Date/timePositionNaut miles runAvg speedWind from/ knotsBaromVisibWave heightAir tempDewpointWater temp
2015-Jul-07 04:34N 49°41' W 000°09'1514.5
2015-Jul-07 03:33N 49°54' W 000°19'2914.3
2015-Jul-07 01:33N 50°21' W 000°36'1111.0
2015-Jul-07 00:33N 50°30' W 000°45'1111.3
2015-Jul-06 23:33N 50°39' W 000°55'1110.9
2015-Jul-06 22:33N 50°48' W 001°07'1 1.2
2015-Jul-06 21:33N 50°49' W 001°06'0 0.0
2015-Jul-06 20:33N 50°49' W 001°06'0 0.0
2015-Jul-06 19:33N 50°49' W 001°06'0 0.0
2015-Jul-06 18:33N 50°49' W 001°06'0 0.0
2015-Jul-06 17:33N 50°49' W 001°06'0 0.0
2015-Jul-06 16:33N 50°49' W 001°06'0 0.0
2015-Jul-06 15:33N 50°49' W 001°06'0 0.0
2015-Jul-06 14:33N 50°49' W 001°06'4 4.3
2015-Jul-06 13:33N 50°44' W 001°05'1716.9
2015-Jul-06 12:33N 50°31' W 001°21'2621.8
2015-Jul-06 11:20N 50°12' W 001°50'1822.8
2015-Jul-06 10:31N 50°00' W 002°12'6319.4
2015-Jul-06 07:15N 49°24' W 003°33'1619.3
2015-Jul-06 06:26N 49°14' W 003°51'1718.9
2015-Jul-06 05:33N 49°02' W 004°08'1918.7
2015-Jul-06 04:31N 48°48' W 004°30'1919.1
2015-Jul-06 03:31N 48°35' W 004°50'1818.7
2015-Jul-06 02:34N 48°21' W 005°07'2420.9
2015-Jul-06 01:24N 47°57' W 005°09'2422.0
2015-Jul-06 00:20N 47°33' W 005°02'1822.4
2015-Jul-05 23:33N 47°16' W 004°57'2322.5
2015-Jul-05 22:31N 46°54' W 004°49'5122.5
2015-Jul-05 20:14N 46°04' W 004°31'26 1.3
2015-Jul-05 00:23N 46°30' W 004°24'4222.1
2015-Jul-04 22:29N 47°11' W 004°33'4621.9
2015-Jul-04 20:22N 47°57' W 004°43'12517.8
2015-Jul-04 13:22N 49°47' W 003°13'4621.3
2015-Jul-04 11:13N 50°10' W 002°12'1319.3
2015-Jul-04 10:33N 50°16' W 001°54'1918.7
2015-Jul-04 09:33N 50°26' W 001°29'1818.3
2015-Jul-04 08:33N 50°35' W 001°05'1312.7
2015-Jul-04 07:33N 50°48' W 001°07'1 0.9
2015-Jul-04 06:33N 50°49' W 001°06'0 0.0
2015-Jul-04 05:33N 50°49' W 001°06'0 0.0
2015-Jul-04 04:33N 50°49' W 001°06'8 8.2
2015-Jul-04 03:33N 50°42' W 000°58'1515.4
2015-Jul-04 02:33N 50°28' W 000°47'1614.8
2015-Jul-04 01:28N 50°15' W 000°34'2110.1
2015-Jul-03 23:22N 49°56' W 000°18'8 9.7
2015-Jul-03 22:33N 49°49' W 000°13'10 9.9
2015-Jul-03 21:34N 49°40' W 000°06'1110.8
2015-Jul-03 20:33N 49°30' E 000°01'4 3.8
2015-Jul-03 19:34N 49°29' E 000°07'0 0.0
2015-Jul-03 18:33N 49°29' E 000°07'0 0.0
2015-Jul-03 17:34N 49°29' E 000°07'0 0.0
2015-Jul-03 16:34N 49°29' E 000°07'0 0.0
2015-Jul-03 15:34N 49°29' E 000°07'0 0.0
2015-Jul-03 14:34N 49°29' E 000°07'10 9.5
2015-Jul-03 13:33N 49°36' W 000°03'2019.7
2015-Jul-03 12:33N 49°53' W 000°19'2419.8
2015-Jul-03 11:21N 50°15' W 000°35'1919.8
2015-Jul-03 10:23N 50°32' W 000°49'1518.9
2015-Jul-03 09:33N 50°44' W 001°04'5 4.9
2015-Jul-03 08:33N 50°49' W 001°06'0 0.0
2015-Jul-03 07:33N 50°49' W 001°06'0 0.0
2015-Jul-03 06:33N 50°49' W 001°06'0 0.0
2015-Jul-03 05:33N 50°49' W 001°06'7 6.8
2015-Jul-03 04:33N 50°43' W 000°60'1515.1
2015-Jul-03 03:32N 50°30' W 000°47'1612.1
2015-Jul-03 02:12N 50°15' W 000°36'810.7
2015-Jul-03 01:30N 50°09' W 000°30'1010.4
2015-Jul-03 00:33N 50°00' W 000°23'1010.1
2015-Jul-02 23:33N 49°52' W 000°15'10 9.8
2015-Jul-02 22:33N 49°43' W 000°09'10 9.8
2015-Jul-02 21:33N 49°34' W 000°01'7 7.2
2015-Jul-02 20:34N 49°29' E 000°07'0 0.0
2015-Jul-02 19:33N 49°29' E 000°07'0 0.0
2015-Jul-02 18:33N 49°29' E 000°07'0 0.0
2015-Jul-02 17:33N 49°29' E 000°07'0 0.0
2015-Jul-02 16:33N 49°29' E 000°07'0 0.0
2015-Jul-02 15:33N 49°29' E 000°07'0 0.0
2015-Jul-02 14:33N 49°29' E 000°07'0 0.0
2015-Jul-02 13:33N 49°29' E 000°07'0 0.0
2015-Jul-02 12:33N 49°29' E 000°07'0 0.0
2015-Jul-02 11:33N 49°29' E 000°07'0 0.0
2015-Jul-02 10:33N 49°29' E 000°07'0 0.0
2015-Jul-02 09:34N 49°29' E 000°07'0 0.0
2015-Jul-02 08:33N 49°29' E 000°07'0 0.0
2015-Jul-02 07:34N 49°29' E 000°07'4 4.2
2015-Jul-02 06:33N 49°31' E 000°01'1515.4
2015-Jul-02 05:33N 49°44' W 000°12'1616.0
2015-Jul-02 04:33N 49°58' W 000°22'3716.0
2015-Jul-02 02:14N 50°31' W 000°49'1115.9
2015-Jul-02 01:33N 50°41' W 000°57'10 9.5
2015-Jul-02 00:33N 50°49' W 001°06'0 0.0
2015-Jul-01 23:33N 50°49' W 001°06'0 0.0
2015-Jul-01 22:33N 50°49' W 001°06'0 0.0
2015-Jul-01 21:33N 50°49' W 001°06'1 0.9
2015-Jul-01 20:33N 50°48' W 001°07'1717.1
2015-Jul-01 19:33N 50°34' W 000°51'4520.7
2015-Jul-01 17:23N 49°55' W 000°17'1720.9
2015-Jul-01 16:34N 49°39' W 000°06'1313.0
2015-Jul-01 15:33N 49°29' E 000°07'0 0.0
2015-Jul-01 14:33N 49°29' E 000°07'0 0.0
2015-Jul-01 13:33N 49°29' E 000°07'0 0.0
2015-Jul-01 12:34N 49°29' E 000°07'0 0.0
2015-Jul-01 11:33N 49°29' E 000°07'0 0.0
2015-Jul-01 10:34N 49°29' E 000°07'0 0.0
2015-Jul-01 09:33N 49°29' E 000°07'0 0.0
2015-Jul-01 08:33N 49°29' E 000°07'0 0.2
2015-Jul-01 07:33N 49°29' E 000°06'1111.4
2015-Jul-01 06:34N 49°38' W 000°05'1615.7
2015-Jul-01 05:34N 49°52' W 000°16'3416.3
2015-Jul-01 03:29N 50°22' W 000°41'1516.1
2015-Jul-01 02:34N 50°35' W 000°52'1414.1
2015-Jul-01 01:34N 50°46' W 001°05'3 2.6
2015-Jul-01 00:33N 50°49' W 001°06'0 0.0
2015-Jun-30 23:33N 50°49' W 001°06'0 0.0
2015-Jun-30 22:33N 50°49' W 001°06'0 0.0
2015-Jun-30 21:33N 50°49' W 001°06'4 4.2
2015-Jun-30 20:33N 50°44' W 001°05'2020.4
2015-Jun-30 19:33N 50°27' W 000°48'2020.4
2015-Jun-30 18:33N 50°10' W 000°30'2121.0
2015-Jun-30 17:34N 49°52' W 000°14'2121.3
2015-Jun-30 16:33N 49°32' W 000°01'6 5.8
2015-Jun-30 15:33N 49°29' E 000°07'0 0.0
2015-Jun-30 14:33N 49°29' E 000°07'0 0.0
2015-Jun-30 13:34N 49°29' E 000°07'0 0.0
2015-Jun-30 12:34N 49°29' E 000°07'0 0.0
2015-Jun-30 11:34N 49°29' E 000°07'0 0.0
2015-Jun-30 10:34N 49°29' E 000°07'0 0.0
2015-Jun-30 09:34N 49°29' E 000°07'0 0.0
2015-Jun-30 08:33N 49°29' E 000°07'0 0.0
2015-Jun-30 07:34N 49°29' E 000°07'0 0.0
2015-Jun-30 06:34N 49°29' E 000°07'1 1.1
2015-Jun-30 05:33N 49°29' E 000°05'1211.8
2015-Jun-30 04:34N 49°38' W 000°07'1414.0
2015-Jun-30 03:33N 49°51' W 000°16'1414.1
2015-Jun-30 02:33N 50°03' W 000°27'1413.5
2015-Jun-30 01:34N 50°15' W 000°37'1313.4
2015-Jun-30 00:34N 50°27' W 000°46'1413.7
2015-Jun-29 23:33N 50°39' W 000°57'1111.4
2015-Jun-29 22:34N 50°49' W 001°06'0 0.1
2015-Jun-29 21:34N 50°49' W 001°06'0 0.0
2015-Jun-29 20:34N 50°49' W 001°06'0 0.0
2015-Jun-29 19:34N 50°49' W 001°06'0 0.0
2015-Jun-29 18:34N 50°49' W 001°06'0 0.0
2015-Jun-29 17:34N 50°49' W 001°06'0 0.0
2015-Jun-29 16:34N 50°49' W 001°06'0 0.0
2015-Jun-29 15:34N 50°49' W 001°06'0 0.0
2015-Jun-29 14:34N 50°49' W 001°06'2 2.2
2015-Jun-29 13:33N 50°46' W 001°06'1212.1
2015-Jun-29 12:33N 50°34' W 001°08'1816.6
2015-Jun-29 11:28N 50°23' W 001°30'1516.3
2015-Jun-29 10:33N 50°15' W 001°50'1717.1
2015-Jun-29 09:33N 50°03' W 002°09'2219.3
2015-Jun-29 08:26N 49°52' W 002°38'1820.7
2015-Jun-29 07:32N 49°43' W 003°02'2120.8
2015-Jun-29 06:31N 49°28' W 003°26'2020.7
2015-Jun-29 05:33N 49°14' W 003°48'2120.9
2015-Jun-29 04:33N 48°59' W 004°11'2121.0
2015-Jun-29 03:33N 48°46' W 004°34'2120.9
2015-Jun-29 02:33N 48°30' W 004°56'1818.1
2015-Jun-29 01:33N 48°14' W 005°09'2322.8
2015-Jun-29 00:34N 47°52' W 005°05'2322.6
2015-Jun-28 23:32N 47°29' W 004°57'2222.7
2015-Jun-28 22:33N 47°07' W 004°50'2322.6
2015-Jun-28 21:33N 46°45' W 004°44'2322.5
2015-Jun-28 20:31N 46°22' W 004°37'2122.2
2015-Jun-28 19:33N 46°01' W 004°31'2322.3
2015-Jun-28 18:33N 45°39' W 004°24'2322.4
2015-Jun-28 17:30N 45°17' W 004°17'1 0.1
2015-Jun-28 03:34N 45°18' W 004°16'2822.2
2015-Jun-28 02:18N 45°45' W 004°25'1722.1
2015-Jun-28 01:32N 46°01' W 004°31'2121.9
2015-Jun-28 00:33N 46°22' W 004°38'2222.2
2015-Jun-27 23:33N 46°44' W 004°45'2222.3
2015-Jun-27 22:33N 47°05' W 004°53'2322.0
2015-Jun-27 21:30N 47°28' W 004°60'2121.9
2015-Jun-27 20:33N 47°49' W 005°04'2121.3
2015-Jun-27 19:33N 48°10' W 005°10'1918.9
2015-Jun-27 18:33N 48°27' W 005°00'2620.3
2015-Jun-27 17:18N 48°47' W 004°35'8220.1
2015-Jun-27 13:14N 49°48' W 003°11'1718.9
2015-Jun-27 12:21N 49°58' W 002°51'2019.5
2015-Jun-27 11:18N 50°06' W 002°22'1620.0
2015-Jun-27 10:29N 50°15' W 002°01'1920.1
2015-Jun-27 09:33N 50°25' W 001°36'2020.3
2015-Jun-27 08:33N 50°35' W 001°08'1413.8
2015-Jun-27 07:33N 50°49' W 001°06'0 0.1
2015-Jun-27 06:33N 50°49' W 001°06'0 0.0
2015-Jun-27 05:33N 50°49' W 001°06'  

Dump ship's entire track history